createdAt,value
2017-03-15T00:00:20.326Z,30
2017-03-15T00:01:20.367Z,30
2017-03-15T00:02:20.418Z,30
2017-03-15T00:03:20.312Z,30
2017-03-15T00:04:18.877Z,29.9
2017-03-15T00:05:18.814Z,30
2017-03-15T00:06:20.485Z,30
2017-03-15T00:07:20.665Z,30
2017-03-15T00:08:19.101Z,29.9
2017-03-15T00:09:20.663Z,30
2017-03-15T00:10:20.601Z,30
2017-03-15T00:11:20.786Z,30
2017-03-15T00:12:19.064Z,30
2017-03-15T00:13:20.920Z,30
2017-03-15T00:14:19.385Z,30
2017-03-15T00:15:21.075Z,30
2017-03-15T00:16:20.996Z,29.9
2017-03-15T00:17:21.161Z,30
2017-03-15T00:18:21.301Z,30
2017-03-15T00:19:21.266Z,30
2017-03-15T00:20:20.045Z,30
2017-03-15T00:21:21.384Z,30
2017-03-15T00:22:21.551Z,30
2017-03-15T00:23:19.926Z,30
2017-03-15T00:24:19.953Z,30
2017-03-15T00:25:21.736Z,30
2017-03-15T00:26:21.822Z,30
2017-03-15T00:27:20.269Z,30
2017-03-15T00:28:21.819Z,30
2017-03-15T00:29:20.383Z,29.9
2017-03-15T00:30:21.987Z,30
2017-03-15T00:31:22.072Z,30
2017-03-15T00:32:22.019Z,30
2017-03-15T00:33:20.579Z,29.9
2017-03-15T00:34:20.659Z,30
2017-03-15T00:35:20.681Z,30
2017-03-15T00:36:22.331Z,30
2017-03-15T00:37:22.579Z,29.9
2017-03-15T00:38:20.704Z,30
2017-03-15T00:39:20.803Z,30
2017-03-15T00:40:20.959Z,30
2017-03-15T00:41:22.499Z,30
2017-03-15T00:42:20.914Z,29.9
2017-03-15T00:43:21.401Z,30
2017-03-15T00:44:22.622Z,30
2017-03-15T00:45:22.770Z,30
2017-03-15T00:46:22.741Z,29.9
2017-03-15T00:47:21.371Z,30
2017-03-15T00:48:23.002Z,30
2017-03-15T00:49:21.513Z,30
2017-03-15T00:50:21.393Z,30
2017-03-15T00:51:23.165Z,30
2017-03-15T00:52:21.493Z,30
2017-03-15T00:53:23.298Z,30
2017-03-15T00:54:21.732Z,30
2017-03-15T00:55:21.813Z,29.9
2017-03-15T00:56:21.755Z,30
2017-03-15T00:57:23.363Z,30
2017-03-15T00:58:21.832Z,30
2017-03-15T00:59:23.645Z,30
2017-03-15T01:00:22.135Z,29.9
2017-03-15T01:01:22.304Z,30
2017-03-15T01:02:21.969Z,29.9
2017-03-15T01:03:23.641Z,29.9
2017-03-15T01:04:23.723Z,29.9
2017-03-15T01:05:23.671Z,29.9
2017-03-15T01:06:23.848Z,29.9
2017-03-15T01:07:24.041Z,29.9
2017-03-15T01:08:23.792Z,29.9
2017-03-15T01:09:23.978Z,29.9
2017-03-15T01:10:23.915Z,29.9
2017-03-15T01:11:22.438Z,29.9
2017-03-15T01:12:22.473Z,29.9
2017-03-15T01:13:22.673Z,29.9
2017-03-15T01:14:24.107Z,29.9
2017-03-15T01:15:24.140Z,29.9
2017-03-15T01:16:22.545Z,29.9
2017-03-15T01:17:24.351Z,29.9
2017-03-15T01:18:24.268Z,29.9
2017-03-15T01:19:23.015Z,29.9
2017-03-15T01:20:24.481Z,29.9
2017-03-15T01:21:22.817Z,29.9
2017-03-15T01:22:24.604Z,29.9
2017-03-15T01:23:22.978Z,29.9
2017-03-15T01:24:22.991Z,29.9
2017-03-15T01:25:24.801Z,29.9
2017-03-15T01:26:23.240Z,29.9
2017-03-15T01:27:24.878Z,29.9
2017-03-15T01:28:23.264Z,29.9
2017-03-15T01:29:23.355Z,29.9
2017-03-15T01:30:25.000Z,29.9
2017-03-15T01:31:23.652Z,29.9
2017-03-15T01:32:24.140Z,29.9
2017-03-15T01:33:25.062Z,29.9
2017-03-15T01:34:25.154Z,29.9
2017-03-15T01:35:25.257Z,29.9
2017-03-15T01:36:23.698Z,29.9
2017-03-15T01:37:25.543Z,29.9
2017-03-15T01:38:25.519Z,29.9
2017-03-15T01:39:25.531Z,29.9
2017-03-15T01:40:23.965Z,29.9
2017-03-15T01:41:26.432Z,29.9
2017-03-15T01:42:25.849Z,29.9
2017-03-15T01:43:26.077Z,29.9
2017-03-15T01:44:24.416Z,29.9
2017-03-15T01:45:26.045Z,29.9
2017-03-15T01:46:24.456Z,29.9
2017-03-15T01:47:24.526Z,29.9
2017-03-15T01:48:24.597Z,29.9
2017-03-15T01:49:26.281Z,29.9
2017-03-15T01:50:24.627Z,29.9
2017-03-15T01:51:26.307Z,29.9
2017-03-15T01:52:26.319Z,29.9
2017-03-15T01:53:24.770Z,29.9
2017-03-15T01:54:26.446Z,29.9
2017-03-15T01:55:24.916Z,29.9
2017-03-15T01:56:26.444Z,29.9
2017-03-15T01:57:26.571Z,29.9
2017-03-15T01:58:25.061Z,29.9
2017-03-15T01:59:24.975Z,29.9
2017-03-15T02:00:26.712Z,29.9
2017-03-15T02:01:25.362Z,29.9
2017-03-15T02:02:26.681Z,29.9
2017-03-15T02:03:26.936Z,29.9
2017-03-15T02:04:25.392Z,29.9
2017-03-15T02:05:27.083Z,29.9
2017-03-15T02:06:27.323Z,29.9
2017-03-15T02:07:27.167Z,29.9
2017-03-15T02:08:25.562Z,29.9
2017-03-15T02:09:25.791Z,29.9
2017-03-15T02:10:25.740Z,29.9
2017-03-15T02:11:27.468Z,29.9
2017-03-15T02:12:27.712Z,29.9
2017-03-15T02:13:26.020Z,29.9
2017-03-15T02:14:25.880Z,29.9
2017-03-15T02:15:26.079Z,29.9
2017-03-15T02:16:26.119Z,29.9
2017-03-15T02:17:26.207Z,29.9
2017-03-15T02:18:27.890Z,29.9
2017-03-15T02:19:27.892Z,29.9
2017-03-15T02:20:26.354Z,29.8
2017-03-15T02:21:26.275Z,29.9
2017-03-15T02:22:27.906Z,29.9
2017-03-15T02:23:26.463Z,29.9
2017-03-15T02:24:28.013Z,29.9
2017-03-15T02:25:27.049Z,29.8
2017-03-15T02:26:28.194Z,29.8
2017-03-15T02:27:28.200Z,29.9
2017-03-15T02:28:26.795Z,29.9
2017-03-15T02:29:26.875Z,29.9
2017-03-15T02:30:26.746Z,29.8
2017-03-15T02:31:28.519Z,29.9
2017-03-15T02:32:26.829Z,29.9
2017-03-15T02:33:27.030Z,29.9
2017-03-15T02:34:28.531Z,29.9
2017-03-15T02:35:28.705Z,29.9
2017-03-15T02:36:27.072Z,29.8
2017-03-15T02:37:27.254Z,29.8
2017-03-15T02:38:27.338Z,29.9
2017-03-15T02:39:28.980Z,29.9
2017-03-15T02:40:27.321Z,29.9
2017-03-15T02:41:29.028Z,29.9
2017-03-15T02:42:29.070Z,29.8
2017-03-15T02:43:33.184Z,29.9
2017-03-15T02:44:29.210Z,29.9
2017-03-15T02:45:29.245Z,29.9
2017-03-15T02:46:30.501Z,29.9
2017-03-15T02:47:29.440Z,29.8
2017-03-15T02:48:29.410Z,29.9
2017-03-15T02:49:27.836Z,29.8
2017-03-15T02:50:29.591Z,29.9
2017-03-15T02:51:29.516Z,29.8
2017-03-15T02:52:28.036Z,29.8
2017-03-15T02:53:28.020Z,29.8
2017-03-15T02:54:29.635Z,29.8
2017-03-15T02:55:28.036Z,29.8
2017-03-15T02:56:29.758Z,29.8
2017-03-15T02:57:28.179Z,29.8
2017-03-15T02:58:29.845Z,29.8
2017-03-15T02:59:29.890Z,29.8
2017-03-15T03:00:28.205Z,29.8
2017-03-15T03:01:28.286Z,29.8
2017-03-15T03:02:28.365Z,29.8
2017-03-15T03:03:30.063Z,29.8
2017-03-15T03:04:30.145Z,29.8
2017-03-15T03:05:30.099Z,29.8
2017-03-15T03:06:28.610Z,29.8
2017-03-15T03:07:28.542Z,29.9
2017-03-15T03:08:28.614Z,29.9
2017-03-15T03:09:30.400Z,29.9
2017-03-15T03:10:30.343Z,29.9
2017-03-15T03:11:30.542Z,29.9
2017-03-15T03:12:29.013Z,29.9
2017-03-15T03:13:30.622Z,29.9
2017-03-15T03:14:29.093Z,29.9
2017-03-15T03:15:30.722Z,29.9
2017-03-15T03:16:29.043Z,29.9
2017-03-15T03:17:30.877Z,29.9
2017-03-15T03:18:30.911Z,29.9
2017-03-15T03:19:30.844Z,29.9
2017-03-15T03:20:29.380Z,29.9
2017-03-15T03:21:31.003Z,29.9
2017-03-15T03:22:29.394Z,29.9
2017-03-15T03:23:31.030Z,29.9
2017-03-15T03:24:29.525Z,29.9
2017-03-15T03:25:29.550Z,29.8
2017-03-15T03:26:31.149Z,29.9
2017-03-15T03:27:29.641Z,29.8
2017-03-15T03:28:31.353Z,29.8
2017-03-15T03:29:29.839Z,29.8
2017-03-15T03:30:29.815Z,29.8
2017-03-15T03:31:31.603Z,29.8
2017-03-15T03:32:31.510Z,29.8
2017-03-15T03:33:31.675Z,29.8
2017-03-15T03:34:30.055Z,29.8
2017-03-15T03:35:31.644Z,29.8
2017-03-15T03:36:30.024Z,29.8
2017-03-15T03:37:30.127Z,29.8
2017-03-15T03:38:31.702Z,29.8
2017-03-15T03:39:31.784Z,29.8
2017-03-15T03:40:30.344Z,29.8
2017-03-15T03:41:31.925Z,29.8
2017-03-15T03:42:32.047Z,29.8
2017-03-15T03:43:32.010Z,29.8
2017-03-15T03:44:32.164Z,29.8
2017-03-15T03:45:30.527Z,29.8
2017-03-15T03:46:30.650Z,29.8
2017-03-15T03:47:32.166Z,29.8
2017-03-15T03:48:32.284Z,29.8
2017-03-15T03:49:30.701Z,29.8
2017-03-15T03:50:32.314Z,29.8
2017-03-15T03:51:32.422Z,29.8
2017-03-15T03:52:30.798Z,29.8
2017-03-15T03:53:30.933Z,29.8
2017-03-15T03:54:31.001Z,29.8
2017-03-15T03:55:32.693Z,29.8
2017-03-15T03:56:32.621Z,29.8
2017-03-15T03:57:32.664Z,29.8
2017-03-15T03:58:32.779Z,29.8
2017-03-15T03:59:32.737Z,29.8
2017-03-15T04:00:31.271Z,29.8
2017-03-15T04:01:32.900Z,29.8
2017-03-15T04:02:32.904Z,29.8
2017-03-15T04:03:31.649Z,29.8
2017-03-15T04:04:31.522Z,29.8
2017-03-15T04:05:33.166Z,29.8
2017-03-15T04:06:31.636Z,29.8
2017-03-15T04:07:33.332Z,29.8
2017-03-15T04:08:33.168Z,29.8
2017-03-15T04:09:33.478Z,29.8
2017-03-15T04:10:31.650Z,29.8
2017-03-15T04:11:33.333Z,29.8
2017-03-15T04:12:33.403Z,29.8
2017-03-15T04:13:33.265Z,29.8
2017-03-15T04:14:33.377Z,29.8
2017-03-15T04:15:31.974Z,29.8
2017-03-15T04:16:33.523Z,29.8
2017-03-15T04:17:33.669Z,29.8
2017-03-15T04:18:33.642Z,29.8
2017-03-15T04:19:33.569Z,29.8
2017-03-15T04:20:33.582Z,29.8
2017-03-15T04:21:33.932Z,29.8
2017-03-15T04:22:32.026Z,29.8
2017-03-15T04:23:32.165Z,29.8
2017-03-15T04:24:32.299Z,29.8
2017-03-15T04:25:33.843Z,29.8
2017-03-15T04:26:33.862Z,29.8
2017-03-15T04:27:34.036Z,29.8
2017-03-15T04:28:33.863Z,29.8
2017-03-15T04:29:33.873Z,29.8
2017-03-15T04:30:32.508Z,29.8
2017-03-15T04:31:32.488Z,29.8
2017-03-15T04:32:32.657Z,29.8
2017-03-15T04:33:32.883Z,29.9
2017-03-15T04:34:34.138Z,29.9
2017-03-15T04:35:34.295Z,29.9
2017-03-15T04:36:32.720Z,29.9
2017-03-15T04:37:32.573Z,29.9
2017-03-15T04:38:34.210Z,29.9
2017-03-15T04:39:34.506Z,29.9
2017-03-15T04:40:34.403Z,29.9
2017-03-15T04:41:32.771Z,29.9
2017-03-15T04:42:32.788Z,29.9
2017-03-15T04:43:34.470Z,29.9
2017-03-15T04:44:34.395Z,29.9
2017-03-15T04:45:33.118Z,29.9
2017-03-15T04:46:33.106Z,29.9
2017-03-15T04:47:33.079Z,29.9
2017-03-15T04:48:34.754Z,29.9
2017-03-15T04:49:33.166Z,29.9
2017-03-15T04:50:40.744Z,29.9
2017-03-15T04:51:35.045Z,29.9
2017-03-15T04:52:33.332Z,29.9
2017-03-15T04:53:33.244Z,29.9
2017-03-15T04:54:35.004Z,29.9
2017-03-15T04:55:35.096Z,29.9
2017-03-15T04:56:35.093Z,30
2017-03-15T04:57:39.308Z,30
2017-03-15T04:58:35.145Z,30
2017-03-15T04:59:33.765Z,29.9
2017-03-15T05:00:33.652Z,30
2017-03-15T05:01:35.471Z,30
2017-03-15T05:02:33.876Z,29.9
2017-03-15T05:03:34.090Z,29.9
2017-03-15T05:04:35.515Z,30
2017-03-15T05:05:35.464Z,30
2017-03-15T05:06:33.895Z,30
2017-03-15T05:07:34.056Z,29.9
2017-03-15T05:08:34.067Z,30
2017-03-15T05:09:35.797Z,30
2017-03-15T05:10:34.146Z,30
2017-03-15T05:11:34.230Z,30
2017-03-15T05:12:35.801Z,29.9
2017-03-15T05:13:34.208Z,30
2017-03-15T05:14:35.854Z,29.9
2017-03-15T05:15:34.677Z,29.9
2017-03-15T05:16:35.979Z,29.9
2017-03-15T05:17:36.058Z,29.9
2017-03-15T05:18:36.225Z,29.9
2017-03-15T05:19:34.523Z,29.9
2017-03-15T05:20:36.160Z,29.9
2017-03-15T05:21:34.840Z,29.9
2017-03-15T05:22:36.193Z,29.9
2017-03-15T05:23:36.293Z,29.9
2017-03-15T05:24:34.762Z,29.9
2017-03-15T05:25:36.386Z,29.9
2017-03-15T05:26:34.934Z,29.9
2017-03-15T05:27:36.755Z,29.9
2017-03-15T05:28:36.638Z,29.9
2017-03-15T05:29:36.587Z,29.9
2017-03-15T05:30:36.599Z,29.9
2017-03-15T05:31:37.510Z,29.9
2017-03-15T05:32:36.796Z,29.9
2017-03-15T05:33:37.199Z,29.9
2017-03-15T05:34:36.805Z,29.9
2017-03-15T05:35:36.923Z,29.9
2017-03-15T05:36:35.462Z,29.9
2017-03-15T05:37:36.962Z,29.9
2017-03-15T05:38:37.067Z,29.8
2017-03-15T05:39:35.720Z,29.8
2017-03-15T05:40:37.888Z,29.8
2017-03-15T05:41:35.472Z,29.8
2017-03-15T05:42:36.076Z,29.8
2017-03-15T05:43:35.564Z,29.8
2017-03-15T05:44:36.310Z,29.8
2017-03-15T05:45:36.086Z,29.8
2017-03-15T05:46:35.918Z,29.8
2017-03-15T05:47:38.129Z,29.8
2017-03-15T05:48:37.535Z,29.8
2017-03-15T05:49:38.443Z,29.8
2017-03-15T05:50:36.014Z,29.9
2017-03-15T05:51:36.329Z,29.9
2017-03-15T05:52:37.389Z,29.9
2017-03-15T05:53:36.319Z,29.9
2017-03-15T05:54:37.896Z,29.9
2017-03-15T05:55:38.608Z,29.9
2017-03-15T05:56:37.981Z,29.9
2017-03-15T05:57:38.179Z,30
2017-03-15T05:58:36.507Z,30
2017-03-15T05:59:38.276Z,30
2017-03-15T06:00:39.478Z,30
2017-03-15T06:01:36.621Z,30
2017-03-15T06:02:36.666Z,30
2017-03-15T06:03:38.529Z,30.1
2017-03-15T06:04:38.485Z,30.1
2017-03-15T06:05:39.204Z,30.1
2017-03-15T06:06:37.042Z,30.1
2017-03-15T06:07:37.111Z,30.1
2017-03-15T06:08:37.185Z,30.1
2017-03-15T06:09:42.433Z,30.1
2017-03-15T06:10:38.951Z,30.2
2017-03-15T06:11:37.448Z,30.2
2017-03-15T06:12:39.158Z,30.2
2017-03-15T06:13:38.964Z,30.2
2017-03-15T06:14:39.169Z,30.2
2017-03-15T06:15:37.937Z,30.2
2017-03-15T06:16:39.241Z,30.3
2017-03-15T06:17:37.731Z,30.3
2017-03-15T06:18:39.389Z,30.3
2017-03-15T06:19:40.213Z,30.3
2017-03-15T06:20:39.507Z,30.3
2017-03-15T06:21:38.251Z,30.3
2017-03-15T06:22:38.203Z,30.4
2017-03-15T06:23:39.826Z,30.4
2017-03-15T06:24:39.717Z,30.4
2017-03-15T06:25:39.848Z,30.4
2017-03-15T06:26:39.944Z,30.4
2017-03-15T06:27:40.100Z,30.4
2017-03-15T06:28:38.303Z,30.4
2017-03-15T06:29:40.087Z,30.5
2017-03-15T06:30:38.384Z,30.5
2017-03-15T06:31:38.578Z,30.5
2017-03-15T06:32:41.062Z,30.5
2017-03-15T06:33:38.986Z,30.5
2017-03-15T06:34:40.822Z,30.5
2017-03-15T06:35:41.148Z,30.5
2017-03-15T06:36:40.946Z,30.5
2017-03-15T06:37:38.999Z,30.5
2017-03-15T06:38:40.209Z,30.5
2017-03-15T06:39:39.211Z,30.5
2017-03-15T06:40:41.180Z,30.5
2017-03-15T06:41:40.644Z,30.5
2017-03-15T06:42:39.051Z,30.5
2017-03-15T06:43:39.209Z,30.5
2017-03-15T06:44:39.177Z,30.5
2017-03-15T06:45:39.486Z,30.5
2017-03-15T06:46:39.264Z,30.5
2017-03-15T06:47:44.055Z,30.6
2017-03-15T06:48:40.096Z,30.6
2017-03-15T06:49:39.373Z,30.6
2017-03-15T06:50:39.472Z,30.6
2017-03-15T06:51:39.738Z,30.6
2017-03-15T06:52:40.210Z,30.6
2017-03-15T06:53:39.731Z,30.7
2017-03-15T06:54:41.344Z,30.7
2017-03-15T06:55:41.369Z,30.7
2017-03-15T06:56:41.347Z,30.7
2017-03-15T06:57:41.809Z,30.7
2017-03-15T06:58:43.615Z,30.8
2017-03-15T06:59:42.839Z,30.8
2017-03-15T07:00:40.776Z,30.8
2017-03-15T07:01:40.753Z,30.8
2017-03-15T07:02:43.082Z,30.8
2017-03-15T07:03:40.406Z,30.8
2017-03-15T07:04:42.429Z,30.8
2017-03-15T07:05:41.922Z,30.8
2017-03-15T07:06:41.978Z,30.9
2017-03-15T07:07:42.181Z,30.9
2017-03-15T07:08:40.760Z,30.9
2017-03-15T07:09:42.842Z,30.9
2017-03-15T07:10:43.176Z,30.9
2017-03-15T07:11:40.647Z,30.9
2017-03-15T07:12:40.663Z,31
2017-03-15T07:13:43.755Z,31
2017-03-15T07:14:42.390Z,31
2017-03-15T07:15:42.953Z,31
2017-03-15T07:16:40.873Z,31
2017-03-15T07:17:41.600Z,31
2017-03-15T07:18:42.678Z,31
2017-03-15T07:19:43.995Z,31
2017-03-15T07:20:41.224Z,31.1
2017-03-15T07:21:42.777Z,31.1
2017-03-15T07:22:42.932Z,31.1
2017-03-15T07:23:41.775Z,31.1
2017-03-15T07:24:41.735Z,31.1
2017-03-15T07:25:42.650Z,31.1
2017-03-15T07:26:41.412Z,31.2
2017-03-15T07:27:41.877Z,31.2
2017-03-15T07:28:41.488Z,31.2
2017-03-15T07:29:43.762Z,31.2
2017-03-15T07:30:42.256Z,31.2
2017-03-15T07:31:44.593Z,31.2
2017-03-15T07:32:43.325Z,31.3
2017-03-15T07:33:43.414Z,31.3
2017-03-15T07:34:44.115Z,31.3
2017-03-15T07:35:43.541Z,31.3
2017-03-15T07:36:44.151Z,31.3
2017-03-15T07:37:43.633Z,31.4
2017-03-15T07:38:43.658Z,31.4
2017-03-15T07:39:42.690Z,31.4
2017-03-15T07:40:43.680Z,31.4
2017-03-15T07:41:43.697Z,31.4
2017-03-15T07:42:43.722Z,31.4
2017-03-15T07:43:42.225Z,31.4
2017-03-15T07:44:44.763Z,31.5
2017-03-15T07:45:45.200Z,31.5
2017-03-15T07:46:45.073Z,31.5
2017-03-15T07:47:42.647Z,31.5
2017-03-15T07:48:44.176Z,31.5
2017-03-15T07:49:44.360Z,31.6
2017-03-15T07:50:44.748Z,31.6
2017-03-15T07:51:44.003Z,31.6
2017-03-15T07:52:45.337Z,31.6
2017-03-15T07:53:44.523Z,31.6
2017-03-15T07:54:42.904Z,31.6
2017-03-15T07:55:43.566Z,31.7
2017-03-15T07:56:44.850Z,31.7
2017-03-15T07:57:43.174Z,31.7
2017-03-15T07:58:44.638Z,31.8
2017-03-15T07:59:43.195Z,31.8
2017-03-15T08:00:43.366Z,31.8
2017-03-15T08:01:44.885Z,31.9
2017-03-15T08:02:44.010Z,31.9
2017-03-15T08:03:44.730Z,31.9
2017-03-15T08:04:43.941Z,32
2017-03-15T08:05:43.445Z,32
2017-03-15T08:06:46.317Z,32.1
2017-03-15T08:07:46.302Z,32.1
2017-03-15T08:08:45.415Z,32.2
2017-03-15T08:09:46.577Z,32.2
2017-03-15T08:10:46.126Z,32.3
2017-03-15T08:11:45.098Z,32.3
2017-03-15T08:12:46.451Z,32.3
2017-03-15T08:13:45.649Z,32.3
2017-03-15T08:14:44.254Z,32.3
2017-03-15T08:15:43.964Z,32.3
2017-03-15T08:16:45.221Z,32.3
2017-03-15T08:17:45.686Z,32.4
2017-03-15T08:18:45.789Z,32.4
2017-03-15T08:19:45.763Z,32.4
2017-03-15T08:20:44.380Z,32.4
2017-03-15T08:21:47.104Z,32.4
2017-03-15T08:22:45.084Z,32.4
2017-03-15T08:23:46.110Z,32.5
2017-03-15T08:24:46.343Z,32.5
2017-03-15T08:25:45.133Z,32.5
2017-03-15T08:26:46.930Z,32.5
2017-03-15T08:27:44.504Z,32.5
2017-03-15T08:28:45.187Z,32.5
2017-03-15T08:29:47.448Z,32.5
2017-03-15T08:30:49.288Z,32.5
2017-03-15T08:31:46.410Z,32.5
2017-03-15T08:32:47.770Z,32.6
2017-03-15T08:33:46.062Z,32.6
2017-03-15T08:34:46.609Z,32.6
2017-03-15T08:35:46.633Z,32.6
2017-03-15T08:36:45.093Z,32.6
2017-03-15T08:37:47.912Z,32.6
2017-03-15T08:38:46.015Z,32.7
2017-03-15T08:39:47.991Z,32.7
2017-03-15T08:40:47.162Z,32.7
2017-03-15T08:41:45.387Z,32.8
2017-03-15T08:42:46.047Z,32.8
2017-03-15T08:43:45.438Z,32.8
2017-03-15T08:44:46.660Z,32.8
2017-03-15T08:45:45.570Z,32.8
2017-03-15T08:46:45.737Z,32.8
2017-03-15T08:47:45.727Z,32.9
2017-03-15T08:48:48.414Z,32.9
2017-03-15T08:49:47.396Z,32.9
2017-03-15T08:50:48.201Z,32.9
2017-03-15T08:51:45.969Z,32.9
2017-03-15T08:52:48.140Z,32.9
2017-03-15T08:53:46.019Z,32.9
2017-03-15T08:54:47.767Z,33
2017-03-15T08:55:46.039Z,33
2017-03-15T08:56:47.426Z,33
2017-03-15T08:57:46.235Z,33.1
2017-03-15T08:58:46.157Z,33.2
2017-03-15T08:59:46.296Z,33.2
2017-03-15T09:00:54.751Z,33.3
2017-03-15T09:01:46.248Z,33.3
2017-03-15T09:02:56.842Z,33.3
2017-03-15T09:03:47.168Z,33.4
2017-03-15T09:04:55.635Z,33.4
2017-03-15T09:05:47.303Z,33.4
2017-03-15T09:06:48.168Z,33.4
2017-03-15T09:07:48.125Z,33.4
2017-03-15T09:08:46.774Z,33.5
2017-03-15T09:09:46.886Z,33.6
2017-03-15T09:10:49.189Z,33.7
2017-03-15T09:11:51.083Z,33.8
2017-03-15T09:12:47.029Z,33.8
2017-03-15T09:13:50.028Z,33.9
2017-03-15T09:14:50.477Z,33.9
2017-03-15T09:15:49.885Z,33.9
2017-03-15T09:16:48.842Z,33.9
2017-03-15T09:17:53.323Z,33.9
2017-03-15T09:18:47.301Z,33.9
2017-03-15T09:19:49.005Z,33.9
2017-03-15T09:20:48.955Z,33.9
2017-03-15T09:21:48.029Z,33.9
2017-03-15T09:22:49.698Z,33.9
2017-03-15T09:23:47.675Z,33.8
2017-03-15T09:24:49.934Z,33.8
2017-03-15T09:25:49.336Z,33.8
2017-03-15T09:26:49.194Z,33.8
2017-03-15T09:27:50.813Z,33.9
2017-03-15T09:28:53.449Z,33.9
2017-03-15T09:29:48.719Z,33.9
2017-03-15T09:30:50.591Z,33.9
2017-03-15T09:31:51.145Z,34
2017-03-15T09:32:52.217Z,34
2017-03-15T09:33:54.322Z,34.1
2017-03-15T09:34:51.014Z,34.1
2017-03-15T09:35:59.869Z,34.1
2017-03-15T09:36:56.746Z,34.1
2017-03-15T09:37:53.626Z,34.2
2017-03-15T09:38:56.967Z,34.2
2017-03-15T09:39:51.702Z,34.1
2017-03-15T09:40:50.784Z,34
2017-03-15T09:41:50.300Z,33.9
2017-03-15T09:42:51.108Z,33.9
2017-03-15T09:43:49.487Z,33.8
2017-03-15T09:44:51.197Z,33.7
2017-03-15T09:45:52.433Z,33.6
2017-03-15T09:46:56.957Z,33.3
2017-03-15T09:47:51.862Z,33.1
2017-03-15T09:48:52.875Z,32.8
2017-03-15T09:49:52.287Z,32.7
2017-03-15T09:50:55.281Z,32.5
2017-03-15T09:52:02.543Z,32.4
2017-03-15T09:52:50.915Z,32.3
2017-03-15T09:53:49.546Z,32.2
2017-03-15T09:54:50.730Z,32.1
2017-03-15T09:55:51.016Z,32
2017-03-15T09:56:52.987Z,32
2017-03-15T09:57:52.462Z,32
2017-03-15T09:58:51.947Z,31.9
2017-03-15T09:59:51.183Z,31.9
2017-03-15T10:00:51.541Z,31.8
2017-03-15T10:01:52.710Z,31.8
2017-03-15T10:02:52.782Z,31.8
2017-03-15T10:03:50.781Z,31.8
2017-03-15T10:04:51.745Z,31.7
2017-03-15T10:05:50.219Z,31.7
2017-03-15T10:06:50.352Z,31.7
2017-03-15T10:07:53.235Z,31.7
2017-03-15T10:08:54.209Z,31.7
2017-03-15T10:09:51.751Z,31.7
2017-03-15T10:10:53.316Z,31.7
2017-03-15T10:11:51.297Z,31.6
2017-03-15T10:12:52.036Z,31.6
2017-03-15T10:13:53.809Z,31.5
2017-03-15T10:14:52.174Z,31.5
2017-03-15T10:15:51.341Z,31.4
2017-03-15T10:16:50.670Z,31.4
2017-03-15T10:17:50.860Z,31.4
2017-03-15T10:18:50.732Z,31.4
2017-03-15T10:19:54.753Z,31.4
2017-03-15T10:20:52.571Z,31.3
2017-03-15T10:21:55.481Z,31.3
2017-03-15T10:22:53.274Z,31.3
2017-03-15T10:23:53.057Z,31.3
2017-03-15T10:24:51.858Z,31.2
2017-03-15T10:25:54.545Z,31.2
2017-03-15T10:26:55.457Z,31.2
2017-03-15T10:27:53.451Z,31.2
2017-03-15T10:28:52.044Z,31.2
2017-03-15T10:29:54.964Z,31.2
2017-03-15T10:30:53.066Z,31.1
2017-03-15T10:31:55.047Z,31.1
2017-03-15T10:32:53.385Z,31.1
2017-03-15T10:33:53.619Z,31.1
2017-03-15T10:34:51.637Z,31
2017-03-15T10:35:53.002Z,31
2017-03-15T10:36:56.042Z,31
2017-03-15T10:37:56.149Z,31
2017-03-15T10:39:52.027Z,31
2017-03-15T10:40:52.680Z,31
2017-03-15T10:41:52.779Z,31
2017-03-15T10:42:53.216Z,30.9
2017-03-15T10:43:53.885Z,30.9
2017-03-15T10:44:53.645Z,30.9
2017-03-15T10:45:55.307Z,30.9
2017-03-15T10:46:56.248Z,30.9
2017-03-15T10:47:55.299Z,30.9
2017-03-15T10:48:54.038Z,30.8
2017-03-15T10:49:53.856Z,30.8
2017-03-15T10:50:55.283Z,30.8
2017-03-15T10:51:54.840Z,30.8
2017-03-15T10:52:54.304Z,30.8
2017-03-15T10:53:53.478Z,30.8
2017-03-15T10:54:54.478Z,30.8
2017-03-15T10:55:55.087Z,30.8
2017-03-15T10:56:54.219Z,30.8
2017-03-15T10:57:55.184Z,30.8
2017-03-15T10:58:54.769Z,30.7
2017-03-15T10:59:54.689Z,30.7
2017-03-15T11:00:59.524Z,30.7
2017-03-15T11:01:54.419Z,30.6
2017-03-15T11:02:55.876Z,30.6
2017-03-15T11:03:56.042Z,30.6
2017-03-15T11:04:53.977Z,30.6
2017-03-15T11:05:54.847Z,30.6
2017-03-15T11:06:57.637Z,30.6
2017-03-15T11:07:55.842Z,30.6
2017-03-15T11:08:54.792Z,30.6
2017-03-15T11:09:57.520Z,30.7
2017-03-15T11:10:57.818Z,30.7
2017-03-15T11:11:56.391Z,30.7
2017-03-15T11:12:56.807Z,30.7
2017-03-15T11:13:54.533Z,30.7
2017-03-15T11:14:57.329Z,30.7
2017-03-15T11:15:54.142Z,30.6
2017-03-15T11:16:56.070Z,30.6
2017-03-15T11:17:54.095Z,30.6
2017-03-15T11:18:55.366Z,30.6
2017-03-15T11:19:54.022Z,30.5
2017-03-15T11:20:54.820Z,30.5
2017-03-15T11:21:54.762Z,30.5
2017-03-15T11:22:54.733Z,30.5
2017-03-15T11:23:57.611Z,30.5
2017-03-15T11:24:58.234Z,30.4
2017-03-15T11:25:57.074Z,30.5
2017-03-15T11:26:57.954Z,30.5
2017-03-15T11:27:57.398Z,30.5
2017-03-15T11:28:57.238Z,30.4
2017-03-15T11:30:02.257Z,30.4
2017-03-15T11:30:55.989Z,30.4
2017-03-15T11:31:56.559Z,30.4
2017-03-15T11:32:58.171Z,30.4
2017-03-15T11:33:55.553Z,30.4
2017-03-15T11:34:59.299Z,30.4
2017-03-15T11:35:57.687Z,30.3
2017-03-15T11:36:54.914Z,30.3
2017-03-15T11:37:57.744Z,30.3
2017-03-15T11:38:58.452Z,30.3
2017-03-15T11:39:57.753Z,30.3
2017-03-15T11:40:55.693Z,30.2
2017-03-15T11:41:57.337Z,30.2
2017-03-15T11:42:57.323Z,30.2
2017-03-15T11:43:56.842Z,30.2
2017-03-15T11:44:59.084Z,30.2
2017-03-15T11:45:59.374Z,30.2
2017-03-15T11:46:55.957Z,30.1
2017-03-15T11:47:58.163Z,30.1
2017-03-15T11:48:55.293Z,30.1
2017-03-15T11:49:58.091Z,30.1
2017-03-15T11:50:58.705Z,30.1
2017-03-15T11:51:58.948Z,30.1
2017-03-15T11:52:59.065Z,30.1
2017-03-15T11:53:57.701Z,30.1
2017-03-15T11:54:55.586Z,30.2
2017-03-15T11:55:57.962Z,30.2
2017-03-15T11:57:00.056Z,30.2
2017-03-15T11:57:55.753Z,30.2
2017-03-15T11:58:57.501Z,30.2
2017-03-15T11:59:57.795Z,30.2
2017-03-15T12:00:56.520Z,30.2
2017-03-15T12:01:57.586Z,30.2
2017-03-15T12:02:58.337Z,30.2
2017-03-15T12:03:56.241Z,30.3
2017-03-15T12:04:58.340Z,30.3
2017-03-15T12:05:56.336Z,30.2
2017-03-15T12:06:57.139Z,30.2
2017-03-15T12:07:57.535Z,30.2
2017-03-15T12:08:56.392Z,30.2
2017-03-15T12:09:58.457Z,30.2
2017-03-15T12:10:57.645Z,30.2
2017-03-15T12:11:58.969Z,30.2
2017-03-15T12:12:57.076Z,30.2
2017-03-15T12:13:58.294Z,30.2
2017-03-15T12:14:58.258Z,30.2
2017-03-15T12:15:56.659Z,30.2
2017-03-15T12:16:58.237Z,30.2
2017-03-15T12:17:58.969Z,30.2
2017-03-15T12:18:56.958Z,30.2
2017-03-15T12:19:59.067Z,30.2
2017-03-15T12:20:57.465Z,30.2
2017-03-15T12:21:58.470Z,30.2
2017-03-15T12:22:58.951Z,30.2
2017-03-15T12:23:57.076Z,30.2
2017-03-15T12:24:56.992Z,30.2
2017-03-15T12:25:57.972Z,30.2
2017-03-15T12:26:59.394Z,30.2
2017-03-15T12:27:57.681Z,30.2
2017-03-15T12:28:58.858Z,30.2
2017-03-15T12:29:58.914Z,30.2
2017-03-15T12:30:57.978Z,30.2
2017-03-15T12:31:59.118Z,30.2
2017-03-15T12:32:59.199Z,30.2
2017-03-15T12:33:59.504Z,30.2
2017-03-15T12:34:59.929Z,30.2
2017-03-15T12:36:03.719Z,30.2
2017-03-15T12:37:01.078Z,30.2
2017-03-15T12:37:59.932Z,30.2
2017-03-15T12:38:59.100Z,30.2
2017-03-15T12:39:59.301Z,30.2
2017-03-15T12:40:57.801Z,30.3
2017-03-15T12:42:00.283Z,30.3
2017-03-15T12:42:58.108Z,30.3
2017-03-15T12:44:00.302Z,30.3
2017-03-15T12:44:59.848Z,30.2
2017-03-15T12:45:58.630Z,30.2
2017-03-15T12:47:00.261Z,30.3
2017-03-15T12:48:00.447Z,30.3
2017-03-15T12:48:59.857Z,30.3
2017-03-15T12:50:02.578Z,30.3
2017-03-15T12:51:02.170Z,30.3
2017-03-15T12:51:58.367Z,30.4
2017-03-15T12:53:02.304Z,30.4
2017-03-15T12:53:59.807Z,30.4
2017-03-15T12:54:59.875Z,30.4
2017-03-15T12:56:00.211Z,30.5
2017-03-15T12:57:03.754Z,30.5
2017-03-15T12:57:58.785Z,30.6
2017-03-15T12:59:00.916Z,30.6
2017-03-15T13:00:00.963Z,30.7
2017-03-15T13:01:00.687Z,30.7
2017-03-15T13:02:01.666Z,30.7
2017-03-15T13:03:04.258Z,30.7
2017-03-15T13:03:59.694Z,30.7
2017-03-15T13:05:00.971Z,30.7
2017-03-15T13:06:00.337Z,30.7
2017-03-15T13:07:02.088Z,30.7
2017-03-15T13:07:59.170Z,30.7
2017-03-15T13:09:00.483Z,30.7
2017-03-15T13:09:59.889Z,30.7
2017-03-15T13:10:59.242Z,30.7
2017-03-15T13:12:02.665Z,30.7
2017-03-15T13:13:03.857Z,30.7
2017-03-15T13:14:01.970Z,30.7
2017-03-15T13:15:03.365Z,30.8
2017-03-15T13:15:59.325Z,30.8
2017-03-15T13:17:01.083Z,30.8
2017-03-15T13:18:00.225Z,30.7
2017-03-15T13:19:00.164Z,30.5
2017-03-15T13:20:02.889Z,30.6
2017-03-15T13:21:03.693Z,30.6
2017-03-15T13:22:02.117Z,30.6
2017-03-15T13:23:00.345Z,30.7
2017-03-15T13:24:01.614Z,30.7
2017-03-15T13:24:59.882Z,30.7
2017-03-15T13:26:01.162Z,30.7